Flag for Japan

Past Weather in 35°35'02.3"N, 139°21'27.9"E, Japan — Yesterday and Last 2 Weeks

Currently: 41 °F. Quite cool. (Weather station: Yokota Ab, Japan). See more current weather

Past Weather in 35°35'02.3"N, 139°21'27.9"E — Graph

°F

35°35'02.3"N, 139°21'27.9"E Temperature Yesterday

Maximum temperature yesterday: 51 °F (at 2:56 pm)
Minimum temperature yesterday: 27 °F (at 4:56 am)
Average temperature yesterday: 40 °F

High & Low Weather Summary for the Past Weeks

 TemperatureHumidityPressure
High71 °F (Feb 22, 3:56 pm)100% (Feb 15, 5:33 am)30.47 "Hg (Feb 15, 5:33 am)
Low27 °F (Feb 19, 5:56 am)11% (Feb 17, 3:56 pm)29.03 "Hg (Feb 15, 2:56 pm)
Average46 °F52%29.93 "Hg
* Reported Feb 10 11:56 pm — Feb 25 11:56 pm, 35°35'02.3"N, 139°21'27.9"E. Weather by CustomWeather, © 2021

Note: Actual official high and low records may vary slightly from our data, if they occured in-between our weather recording intervals... More about our weather records

35°35'02.3"N, 139°21'27.9"E Weather History for the Previous 24 Hours

Scroll right to see more
 ConditionsComfort  
Time TempWeatherWind HumidityBarometerVisibility
11:56 pm
Thu, Feb 25
43 °FQuite cool.N/AN/A30.24 "HgN/A
10:59 pm43 °FPassing clouds.7 mph57%30.25 "Hg10 mi
9:56 pm42 °FPassing clouds.5 mph58%30.26 "Hg10 mi
8:56 pm42 °FClear.No wind57%30.27 "Hg10 mi
7:56 pm43 °FClear.3 mph57%30.26 "Hg10 mi
6:56 pm43 °FClear.6 mph61%30.27 "Hg10 mi
5:56 pm45 °FClear.8 mph51%30.25 "Hg10 mi
4:56 pm46 °FSunny.13 mph41%30.24 "Hg10 mi
3:56 pm50 °FSunny.13 mph32%30.23 "Hg10 mi
2:56 pm51 °FSunny.7 mph29%30.24 "Hg10 mi
1:56 pm51 °FSunny.9 mph30%30.24 "Hg10 mi
12:56 pm49 °FPassing clouds.10 mph29%30.26 "Hg10 mi
11:56 am47 °FSunny.No wind29%30.30 "Hg10 mi
10:56 am46 °FSunny.3 mph28%30.32 "Hg10 mi
9:56 am44 °FSunny.7 mph28%30.33 "Hg10 mi
8:56 am40 °FSunny.3 mph35%30.34 "Hg10 mi
7:56 am35 °FSunny.No wind44%30.33 "Hg10 mi
6:56 am29 °FSunny.No wind70%30.30 "Hg10 mi
5:56 am29 °FClear.No wind58%30.28 "Hg10 mi
4:56 am27 °FClear.No wind62%30.28 "Hg10 mi
3:56 am34 °FClear.7 mph39%30.25 "Hg10 mi
2:56 am33 °FClear.3 mph41%30.25 "Hg10 mi
1:56 am31 °FClear.No wind54%30.27 "Hg10 mi
Weather by CustomWeather, © 2021

See weather overview